Time;durP1;ratioP1;P1;durP2;ratioP2;P2;SDS_P1;SDS_P2;PMS_P1;PMS_P2;Temp;Humidity;BMP_temperature;BMP_pressure;BME280_temperature;BME280_humidity;BME280_pressure;Samples;Min_cycle;Max_cycle;Signal;HPM_P1;HPM_P2
2020/12/09 00:00:09;;;;;;;20.98;15.73;;;3.90;99.90;;;;;;2121630;27;20019;-76
2020/12/09 00:01:09;;;;;;;21.38;16.00;;;3.90;99.90;;;;;;2112587;28;20090;-80
2020/12/09 00:02:10;;;;;;;20.00;16.15;;;3.90;99.90;;;;;;2103320;28;20488;-77
2020/12/09 00:03:10;;;;;;;20.70;17.60;;;3.90;99.90;;;;;;2112522;28;20188;-78
2020/12/09 00:04:11;;;;;;;21.25;17.42;;;3.80;99.90;;;;;;2121753;27;20047;-77
2020/12/09 00:05:13;;;;;;;22.33;17.35;;;3.80;99.90;;;;;;2121798;27;20472;-78
2020/12/09 00:06:13;;;;;;;20.33;16.73;;;3.80;99.90;;;;;;2121849;27;20325;-77
2020/12/09 00:07:14;;;;;;;22.98;17.60;;;3.80;99.90;;;;;;2121629;27;20061;-79
2020/12/09 00:08:14;;;;;;;23.75;17.30;;;3.80;99.90;;;;;;2121823;27;20058;-77
2020/12/09 00:09:18;;;;;;;23.45;17.77;;;3.80;99.90;;;;;;2121358;27;20106;-77
2020/12/09 00:10:18;;;;;;;20.42;16.88;;;3.70;99.90;;;;;;2121660;27;20106;-79
2020/12/09 00:11:19;;;;;;;25.35;18.25;;;3.70;99.90;;;;;;2121487;27;20089;-77
2020/12/09 00:12:19;;;;;;;21.98;17.00;;;3.70;99.90;;;;;;2112371;28;20111;-78
2020/12/09 00:13:20;;;;;;;23.25;17.48;;;3.70;99.90;;;;;;2112398;28;20054;-78
2020/12/09 00:14:21;;;;;;;19.70;16.80;;;3.70;99.90;;;;;;2121890;27;20030;-78
2020/12/09 00:15:22;;;;;;;25.85;18.48;;;3.70;99.90;;;;;;2112326;28;20035;-78
2020/12/09 00:16:22;;;;;;;20.67;16.85;;;3.70;99.90;;;;;;2112805;28;20026;-77
2020/12/09 00:17:23;;;;;;;22.08;17.38;;;3.60;99.90;;;;;;2121504;27;20433;-79
2020/12/09 00:18:24;;;;;;;26.25;18.42;;;3.60;99.90;;;;;;2121732;27;20016;-76
2020/12/09 00:19:24;;;;;;;20.55;16.77;;;3.60;99.90;;;;;;2121646;27;20519;-78
2020/12/09 00:20:25;;;;;;;29.27;18.00;;;3.60;99.90;;;;;;2121498;27;20027;-78
2020/12/09 00:21:25;;;;;;;21.65;17.67;;;3.60;99.90;;;;;;2120986;27;20379;-77
2020/12/09 00:22:26;;;;;;;20.25;17.58;;;3.60;99.90;;;;;;2112506;28;20031;-80
2020/12/09 00:23:27;;;;;;;19.65;16.45;;;3.60;99.90;;;;;;2112382;28;20015;-79
2020/12/09 00:24:27;;;;;;;20.73;15.93;;;3.60;99.90;;;;;;2112838;28;20090;-78
2020/12/09 00:25:28;;;;;;;21.02;16.65;;;3.60;99.90;;;;;;2112311;28;20542;-78
2020/12/09 00:26:29;;;;;;;22.27;17.33;;;3.50;99.90;;;;;;2121654;27;20055;-79
2020/12/09 00:27:31;;;;;;;20.23;16.65;;;3.50;99.90;;;;;;2121502;27;20030;-79
2020/12/09 00:28:32;;;;;;;20.00;16.65;;;3.50;99.90;;;;;;2121528;27;20080;-79
2020/12/09 00:29:32;;;;;;;19.05;16.23;;;3.50;99.90;;;;;;2112262;28;20016;-79
2020/12/09 00:30:33;;;;;;;21.08;17.13;;;3.50;99.90;;;;;;2112609;28;20030;-78
2020/12/09 00:31:34;;;;;;;23.20;17.88;;;3.50;99.90;;;;;;2111719;28;20035;-79
2020/12/09 00:32:35;;;;;;;22.10;17.35;;;3.50;99.90;;;;;;2112669;28;20110;-76
2020/12/09 00:33:36;;;;;;;19.98;16.88;;;3.50;99.90;;;;;;2121442;27;20020;-75
2020/12/09 00:34:36;;;;;;;19.73;16.50;;;3.50;99.90;;;;;;2121646;27;20531;-79
2020/12/09 00:35:38;;;;;;;22.42;17.23;;;3.50;99.90;;;;;;2121310;27;20023;-79
2020/12/09 00:36:39;;;;;;;20.80;16.58;;;3.40;99.90;;;;;;2121649;27;20577;-77
2020/12/09 00:37:40;;;;;;;21.55;17.70;;;3.40;99.90;;;;;;2121196;27;20047;-79
2020/12/09 00:38:40;;;;;;;22.05;17.45;;;3.40;99.90;;;;;;2121762;27;20026;-77
2020/12/09 00:39:41;;;;;;;20.38;17.23;;;3.40;99.90;;;;;;2121275;27;20522;-80
2020/12/09 00:40:43;;;;;;;19.10;15.85;;;3.40;99.90;;;;;;2121628;27;20019;-79
2020/12/09 00:41:43;;;;;;;25.10;19.42;;;3.40;99.90;;;;;;2120899;27;20379;-78
2020/12/09 00:42:45;;;;;;;22.10;18.42;;;3.40;99.90;;;;;;2121587;27;20211;-78
2020/12/09 00:43:45;;;;;;;23.38;17.75;;;3.40;99.90;;;;;;2121420;27;20386;-78
2020/12/09 00:44:46;;;;;;;22.95;18.77;;;3.40;99.90;;;;;;2121530;27;20023;-77
2020/12/09 00:45:47;;;;;;;22.45;17.35;;;3.40;99.90;;;;;;2121600;27;20064;-78
2020/12/09 00:46:47;;;;;;;24.42;18.50;;;3.40;99.90;;;;;;2121711;27;20031;-78
2020/12/09 00:47:48;;;;;;;21.05;17.58;;;3.30;99.90;;;;;;2112127;28;20077;-77
2020/12/09 00:48:48;;;;;;;25.05;18.42;;;3.30;99.90;;;;;;2112237;28;20065;-79
2020/12/09 00:49:58;;;;;;;25.58;19.52;;;3.30;99.90;;;;;;2111933;28;20028;-76
2020/12/09 00:50:59;;;;;;;22.40;19.23;;;3.30;99.90;;;;;;2113763;27;20417;-80
2020/12/09 00:52:00;;;;;;;24.10;19.02;;;3.30;99.90;;;;;;2111844;28;20111;-78
2020/12/09 00:53:01;;;;;;;24.90;18.15;;;3.30;99.90;;;;;;2112158;28;20019;-79
2020/12/09 00:54:01;;;;;;;23.52;18.80;;;3.30;99.90;;;;;;2112578;28;20524;-77
2020/12/09 00:55:02;;;;;;;21.13;17.35;;;3.30;99.90;;;;;;2121093;27;20015;-77
2020/12/09 00:56:05;;;;;;;22.23;17.98;;;3.30;99.90;;;;;;2121421;27;20095;-76
2020/12/09 00:57:06;;;;;;;25.92;19.85;;;3.30;99.90;;;;;;2121168;27;20015;-79
2020/12/09 00:58:07;;;;;;;22.88;17.73;;;3.30;99.90;;;;;;2113067;28;20590;-77
2020/12/09 00:59:07;;;;;;;23.83;18.27;;;3.30;99.90;;;;;;2112115;28;20028;-78
2020/12/09 01:00:08;;;;;;;24.23;18.67;;;3.30;99.90;;;;;;2112144;28;20055;-81
2020/12/09 01:01:10;;;;;;;25.02;19.67;;;3.30;99.90;;;;;;2112101;28;20028;-79
2020/12/09 01:02:10;;;;;;;24.73;19.27;;;3.30;99.90;;;;;;2111513;28;20131;-79
2020/12/09 01:03:11;;;;;;;20.17;16.92;;;3.30;99.90;;;;;;2112030;28;20035;-80
2020/12/09 01:04:11;;;;;;;24.35;19.27;;;3.30;99.90;;;;;;2121524;27;20062;-80
2020/12/09 01:05:13;;;;;;;23.67;18.40;;;3.30;99.90;;;;;;2121352;27;20053;-79
2020/12/09 01:06:14;;;;;;;26.40;19.25;;;3.30;99.90;;;;;;2121261;27;20064;-77
2020/12/09 01:07:15;;;;;;;24.02;19.73;;;3.30;99.90;;;;;;2121195;27;20458;-79
2020/12/09 01:08:15;;;;;;;28.65;20.35;;;3.30;99.90;;;;;;2121442;27;20239;-78
2020/12/09 01:09:16;;;;;;;27.17;20.95;;;3.30;99.90;;;;;;2121137;27;20019;-77
2020/12/09 01:10:16;;;;;;;23.52;18.67;;;3.30;99.90;;;;;;2112133;28;20032;-79
2020/12/09 01:11:20;;;;;;;24.63;20.10;;;3.30;99.90;;;;;;2111887;28;20043;-78
2020/12/09 01:12:21;;;;;;;23.92;18.65;;;3.30;99.90;;;;;;2111992;28;20547;-78
2020/12/09 01:13:21;;;;;;;23.05;18.02;;;3.30;99.90;;;;;;2111818;28;20027;-79
2020/12/09 01:14:22;;;;;;;24.52;20.30;;;3.30;99.90;;;;;;2121107;28;20027;-78
2020/12/09 01:15:22;;;;;;;27.60;20.50;;;3.30;99.90;;;;;;2120870;27;20030;-79
2020/12/09 01:16:23;;;;;;;22.17;18.95;;;3.30;99.90;;;;;;2112143;28;20020;-77
2020/12/09 01:17:23;;;;;;;27.95;20.70;;;3.40;99.90;;;;;;2111963;28;20022;-79
2020/12/09 01:18:24;;;;;;;25.75;20.50;;;3.40;99.90;;;;;;2121012;27;20487;-79
2020/12/09 01:19:24;;;;;;;26.92;19.15;;;3.40;99.90;;;;;;2119945;27;20043;-81
2020/12/09 01:20:25;;;;;;;23.50;18.77;;;3.40;99.90;;;;;;2112175;28;20405;-81
2020/12/09 01:21:29;;;;;;;22.63;18.63;;;3.40;99.90;;;;;;2111550;28;20119;-77
2020/12/09 01:22:30;;;;;;;22.80;17.58;;;3.40;99.90;;;;;;2112118;28;20055;-78
2020/12/09 01:23:31;;;;;;;26.67;20.08;;;3.40;99.90;;;;;;2111916;28;20044;-78
2020/12/09 01:24:32;;;;;;;27.02;19.90;;;3.40;99.90;;;;;;2121531;27;20102;-77
2020/12/09 01:25:32;;;;;;;29.52;23.10;;;3.40;99.90;;;;;;2111853;28;20054;-79
2020/12/09 01:26:33;;;;;;;26.65;20.70;;;3.40;99.90;;;;;;2112149;28;20039;-81
2020/12/09 01:27:33;;;;;;;26.35;20.17;;;3.50;99.90;;;;;;2121165;28;20368;-78
2020/12/09 01:28:34;;;;;;;28.48;22.55;;;3.50;99.90;;;;;;2121216;28;20170;-80
2020/12/09 01:29:34;;;;;;;26.83;20.92;;;3.50;99.90;;;;;;2120992;28;20016;-80
2020/12/09 01:30:35;;;;;;;29.02;21.95;;;3.50;99.90;;;;;;2121231;28;20024;-79
2020/12/09 01:31:36;;;;;;;25.65;20.77;;;3.50;99.90;;;;;;2120634;28;20299;-79
2020/12/09 01:32:36;;;;;;;29.20;22.42;;;3.50;99.90;;;;;;2121238;28;20051;-77
2020/12/09 01:33:37;;;;;;;28.23;21.80;;;3.50;99.90;;;;;;2121140;28;20061;-76
2020/12/09 01:34:37;;;;;;;28.52;21.00;;;3.50;99.90;;;;;;2111920;28;20266;-77
2020/12/09 01:35:39;;;;;;;28.08;22.75;;;3.50;99.90;;;;;;2112019;28;20020;-80
2020/12/09 01:36:40;;;;;;;30.13;22.48;;;3.60;99.90;;;;;;2121297;28;20022;-78
2020/12/09 01:37:40;;;;;;;28.10;21.02;;;3.60;99.90;;;;;;2112014;28;20459;-80
2020/12/09 01:38:41;;;;;;;26.92;20.23;;;3.60;99.90;;;;;;2112021;28;20045;-79
2020/12/09 01:39:41;;;;;;;26.27;20.65;;;3.60;99.90;;;;;;2120870;28;20037;-77
2020/12/09 01:40:42;;;;;;;25.65;19.98;;;3.60;99.90;;;;;;2121047;28;20022;-78
2020/12/09 01:41:42;;;;;;;24.23;18.92;;;3.60;99.90;;;;;;2120761;28;20020;-77
2020/12/09 01:42:43;;;;;;;29.58;22.58;;;3.60;99.90;;;;;;2111987;28;20106;-76
2020/12/09 01:43:48;;;;;;;26.63;21.48;;;3.60;99.90;;;;;;2112173;28;20019;-77
2020/12/09 01:44:48;;;;;;;31.33;23.02;;;3.70;99.90;;;;;;2120868;28;20659;-78
2020/12/09 01:45:49;;;;;;;31.20;23.90;;;3.70;99.90;;;;;;2120974;28;20020;-77
2020/12/09 01:46:51;;;;;;;32.60;23.00;;;3.70;99.90;;;;;;2120956;28;20031;-79
2020/12/09 01:47:52;;;;;;;31.55;24.10;;;3.70;99.90;;;;;;2120977;28;20436;-79
2020/12/09 01:48:53;;;;;;;28.90;23.67;;;3.70;99.90;;;;;;2111897;28;20031;-81
2020/12/09 01:49:54;;;;;;;29.58;22.05;;;3.70;99.90;;;;;;2111821;28;20055;-79
2020/12/09 01:50:54;;;;;;;29.67;22.40;;;3.70;99.90;;;;;;2121265;28;20023;-78
2020/12/09 01:51:55;;;;;;;30.60;22.70;;;3.70;99.90;;;;;;2120475;28;20023;-77
2020/12/09 01:52:56;;;;;;;28.13;21.88;;;3.70;99.90;;;;;;2121058;28;20015;-78
2020/12/09 01:53:58;;;;;;;33.55;25.10;;;3.70;99.90;;;;;;2121163;28;20029;-81
2020/12/09 01:54:59;;;;;;;26.30;19.88;;;3.80;99.90;;;;;;2120656;28;20030;-79
2020/12/09 01:55:59;;;;;;;28.10;21.45;;;3.80;99.90;;;;;;2121094;28;20035;-78
2020/12/09 01:57:11;;;;;;;27.50;22.23;;;3.80;99.90;;;;;;2121025;28;20054;-78
2020/12/09 01:58:11;;;;;;;34.55;23.85;;;3.80;99.90;;;;;;2121099;28;20459;-81
2020/12/09 01:59:12;;;;;;;30.45;24.02;;;3.80;99.90;;;;;;2111716;28;20019;-79
2020/12/09 02:00:12;;;;;;;31.15;23.20;;;3.80;99.90;;;;;;2103452;28;20058;-76
2020/12/09 02:01:13;;;;;;;30.33;24.77;;;3.80;99.90;;;;;;2111810;28;20114;-79
2020/12/09 02:02:14;;;;;;;32.97;25.77;;;3.80;99.90;;;;;;2120835;28;20030;-79
2020/12/09 02:03:15;;;;;;;31.02;24.00;;;3.80;99.90;;;;;;2120765;28;20098;-76
2020/12/09 02:04:15;;;;;;;33.97;25.65;;;3.80;99.90;;;;;;2121223;28;20030;-80
2020/12/09 02:05:16;;;;;;;30.90;23.05;;;3.90;99.90;;;;;;2120985;28;20053;-81
2020/12/09 02:06:18;;;;;;;29.25;21.52;;;3.90;99.90;;;;;;2121151;28;20027;-79
2020/12/09 02:07:22;;;;;;;29.08;22.25;;;3.90;99.90;;;;;;2120915;28;20043;-76
2020/12/09 02:08:22;;;;;;;30.73;23.48;;;3.90;99.90;;;;;;2121242;28;20042;-76
2020/12/09 02:09:24;;;;;;;27.70;21.73;;;3.90;99.90;;;;;;2111460;28;20515;-77
2020/12/09 02:10:24;;;;;;;29.73;22.75;;;3.90;99.90;;;;;;2111949;28;20028;-76
2020/12/09 02:11:25;;;;;;;29.02;22.80;;;3.90;99.90;;;;;;2120674;28;20106;-78
2020/12/09 02:12:26;;;;;;;29.70;23.23;;;4.00;99.90;;;;;;2121173;28;20097;-80
2020/12/09 02:13:27;;;;;;;32.90;23.05;;;4.00;99.90;;;;;;2111595;28;20024;-78
2020/12/09 02:14:27;;;;;;;30.50;22.60;;;4.00;99.90;;;;;;2111948;28;20076;-77
2020/12/09 02:15:28;;;;;;;31.40;23.10;;;4.00;99.90;;;;;;2120702;28;20493;-80
2020/12/09 02:16:28;;;;;;;28.65;23.25;;;4.00;99.90;;;;;;2121193;28;20102;-80
2020/12/09 02:17:29;;;;;;;27.67;21.70;;;4.00;99.90;;;;;;2120868;28;20382;-80
2020/12/09 02:18:30;;;;;;;31.35;23.27;;;4.00;99.90;;;;;;2111922;28;20487;-77
2020/12/09 02:19:30;;;;;;;27.77;21.77;;;4.00;99.90;;;;;;2111766;28;20069;-78
2020/12/09 02:20:31;;;;;;;27.63;21.02;;;4.00;99.90;;;;;;2111841;28;20047;-78
2020/12/09 02:21:35;;;;;;;27.45;21.23;;;4.10;99.90;;;;;;2120546;28;20113;-79
2020/12/09 02:22:36;;;;;;;29.05;21.65;;;4.10;99.90;;;;;;2121127;28;20566;-79
2020/12/09 02:23:36;;;;;;;30.27;21.48;;;4.10;99.90;;;;;;2121014;28;20072;-81
2020/12/09 02:24:38;;;;;;;31.20;22.92;;;4.10;99.90;;;;;;2121266;28;20092;-77
2020/12/09 02:25:38;;;;;;;25.38;20.88;;;4.10;99.90;;;;;;2112818;28;20445;-80
2020/12/09 02:26:43;;;;;;;25.85;21.85;;;4.20;99.90;;;;;;2113327;28;20073;-79
2020/12/09 02:27:44;;;;;;;22.67;18.35;;;4.10;99.90;;;;;;2114167;28;20051;-76
2020/12/09 02:28:44;;;;;;;22.48;18.27;;;4.10;99.90;;;;;;2122849;27;20019;-79
2020/12/09 02:29:45;;;;;;;24.52;20.00;;;4.20;99.90;;;;;;2122342;27;20161;-77
2020/12/09 02:30:45;;;;;;;27.08;20.73;;;4.20;99.90;;;;;;2113340;28;20024;-79
2020/12/09 02:31:46;;;;;;;26.55;21.25;;;4.20;99.90;;;;;;2112757;28;20043;-80
2020/12/09 02:32:47;;;;;;;28.75;22.48;;;4.20;99.90;;;;;;2122571;27;20027;-80
2020/12/09 02:33:47;;;;;;;27.85;22.50;;;4.20;99.90;;;;;;2122617;27;20030;-80
2020/12/09 02:34:48;;;;;;;32.75;23.02;;;4.20;99.90;;;;;;2122482;27;20023;-76
2020/12/09 02:35:48;;;;;;;28.00;21.98;;;4.20;99.90;;;;;;2122524;27;20051;-80
2020/12/09 02:36:49;;;;;;;27.73;21.38;;;4.20;99.90;;;;;;2113005;28;20016;-78
2020/12/09 02:37:50;;;;;;;26.55;21.45;;;4.20;99.90;;;;;;2113208;28;20486;-77
2020/12/09 02:38:50;;;;;;;25.15;19.63;;;4.20;99.90;;;;;;2122548;27;20071;-77
2020/12/09 02:39:51;;;;;;;24.38;19.25;;;4.30;99.90;;;;;;2113194;28;20042;-79
2020/12/09 02:40:52;;;;;;;22.63;18.92;;;4.30;99.90;;;;;;2113387;28;20094;-79
2020/12/09 02:41:52;;;;;;;24.02;19.98;;;4.30;99.90;;;;;;2121874;27;20051;-76
2020/12/09 02:42:53;;;;;;;24.35;19.70;;;4.30;99.90;;;;;;2122178;27;20072;-77
2020/12/09 02:43:53;;;;;;;27.27;21.10;;;4.30;99.90;;;;;;2113233;28;20030;-78
2020/12/09 02:44:54;;;;;;;24.85;20.38;;;4.30;99.90;;;;;;2113254;28;20038;-80
2020/12/09 02:45:54;;;;;;;26.98;22.08;;;4.30;99.90;;;;;;2122375;27;20211;-79
2020/12/09 02:46:55;;;;;;;28.60;23.35;;;4.30;99.90;;;;;;2122423;27;20506;-78
2020/12/09 02:47:55;;;;;;;26.75;21.63;;;4.30;99.90;;;;;;2122024;27;20031;-77
2020/12/09 02:48:57;;;;;;;27.30;22.85;;;4.30;99.90;;;;;;2113028;28;20023;-79
2020/12/09 02:49:57;;;;;;;32.35;25.30;;;4.30;99.90;;;;;;2113388;27;20053;-77
2020/12/09 02:50:58;;;;;;;28.58;22.35;;;4.30;99.90;;;;;;2122296;27;20198;-79
2020/12/09 02:51:58;;;;;;;30.13;24.00;;;4.30;99.90;;;;;;2121861;27;20298;-77
2020/12/09 02:52:59;;;;;;;29.83;24.05;;;4.30;99.90;;;;;;2122478;27;20023;-77
2020/12/09 02:53:59;;;;;;;31.17;24.33;;;4.30;99.90;;;;;;2122129;27;20046;-78
2020/12/09 02:55:00;;;;;;;28.60;22.98;;;4.40;99.90;;;;;;2122254;27;20027;-78
2020/12/09 02:56:00;;;;;;;27.42;21.80;;;4.40;99.90;;;;;;2122278;27;20057;-78
2020/12/09 02:57:01;;;;;;;27.80;22.63;;;4.40;99.90;;;;;;2109675;28;20015;-77
2020/12/09 02:58:02;;;;;;;24.95;20.70;;;4.40;99.90;;;;;;2104445;28;20103;-78
2020/12/09 02:59:02;;;;;;;26.13;22.30;;;4.40;99.90;;;;;;2112911;28;20448;-79
2020/12/09 03:00:06;;;;;;;27.58;22.00;;;4.40;99.90;;;;;;2121680;27;20099;-80
2020/12/09 03:01:06;;;;;;;29.48;21.90;;;4.40;99.90;;;;;;2122760;27;20035;-77
2020/12/09 03:02:07;;;;;;;27.63;23.80;;;4.40;99.90;;;;;;2113486;28;20080;-78
2020/12/09 03:03:08;;;;;;;26.67;21.88;;;4.40;99.90;;;;;;2114164;28;20467;-79
2020/12/09 03:04:08;;;;;;;30.85;23.92;;;4.40;99.90;;;;;;2113994;28;20467;-77
2020/12/09 03:05:09;;;;;;;26.25;21.85;;;4.40;99.90;;;;;;2122969;27;20481;-79
2020/12/09 03:06:09;;;;;;;26.85;21.67;;;4.40;99.90;;;;;;2122988;27;20031;-78
2020/12/09 03:07:10;;;;;;;24.95;21.80;;;4.50;99.90;;;;;;2122713;27;20038;-76
2020/12/09 03:08:10;;;;;;;26.65;21.58;;;4.50;99.90;;;;;;2113880;28;20122;-79
2020/12/09 03:09:11;;;;;;;24.30;21.08;;;4.50;99.90;;;;;;2105321;28;20024;-80
2020/12/09 03:10:11;;;;;;;27.85;22.05;;;4.50;99.90;;;;;;2113828;28;20051;-77
2020/12/09 03:11:12;;;;;;;27.90;22.60;;;4.50;99.90;;;;;;2113421;28;20027;-80
2020/12/09 03:12:13;;;;;;;26.20;22.50;;;4.50;99.90;;;;;;2113654;28;20099;-78
2020/12/09 03:13:13;;;;;;;27.52;22.73;;;4.50;99.90;;;;;;2123012;27;20064;-78
2020/12/09 03:14:14;;;;;;;34.33;22.35;;;4.50;99.90;;;;;;2113783;28;20016;-80
2020/12/09 03:15:14;;;;;;;27.75;23.15;;;4.50;99.90;;;;;;2113885;28;20445;-76
2020/12/09 03:16:15;;;;;;;28.15;22.30;;;4.50;99.90;;;;;;2122951;27;20027;-76
2020/12/09 03:17:15;;;;;;;26.27;21.95;;;4.50;99.90;;;;;;2122545;27;20106;-77
2020/12/09 03:18:16;;;;;;;32.72;23.02;;;4.60;99.90;;;;;;2113962;28;20023;-78
2020/12/09 03:19:16;;;;;;;30.23;22.80;;;4.60;99.90;;;;;;2113737;28;20019;-79
2020/12/09 03:20:17;;;;;;;28.65;24.35;;;4.60;99.90;;;;;;2113719;28;20190;-80
2020/12/09 03:21:18;;;;;;;30.75;23.65;;;4.60;99.90;;;;;;2113725;28;20387;-79
2020/12/09 03:22:18;;;;;;;28.85;21.80;;;4.60;99.90;;;;;;2122587;27;20027;-79
2020/12/09 03:23:21;;;;;;;27.15;22.92;;;4.60;99.90;;;;;;2122911;27;20046;-79
2020/12/09 03:24:22;;;;;;;30.90;23.70;;;4.70;99.90;;;;;;2113778;28;20027;-77
2020/12/09 03:25:23;;;;;;;29.67;23.20;;;4.70;99.90;;;;;;2105403;28;20055;-81
2020/12/09 03:26:26;;;;;;;26.23;21.60;;;4.70;99.90;;;;;;2113811;28;20024;-80
2020/12/09 03:27:27;;;;;;;27.67;22.17;;;4.70;99.90;;;;;;2122665;27;20042;-79
2020/12/09 03:28:27;;;;;;;28.63;22.95;;;4.70;99.90;;;;;;2113619;28;20024;-79
2020/12/09 03:29:28;;;;;;;29.52;23.13;;;4.70;99.90;;;;;;2105355;28;20035;-79
2020/12/09 03:30:28;;;;;;;27.92;22.92;;;4.70;99.90;;;;;;2113594;28;20403;-79
2020/12/09 03:31:29;;;;;;;31.00;23.83;;;4.70;99.90;;;;;;2105007;28;20038;-78
2020/12/09 03:32:30;;;;;;;29.25;22.77;;;4.70;99.90;;;;;;2113668;28;20065;-77
2020/12/09 03:33:31;;;;;;;26.20;22.15;;;4.70;99.90;;;;;;2122681;27;20026;-80
2020/12/09 03:34:32;;;;;;;26.10;22.20;;;4.70;99.90;;;;;;2122858;27;20071;-78
2020/12/09 03:35:32;;;;;;;26.63;21.27;;;4.70;99.90;;;;;;2122763;27;20031;-80
2020/12/09 03:36:33;;;;;;;24.65;21.00;;;4.80;99.90;;;;;;2122261;27;20099;-77
2020/12/09 03:37:33;;;;;;;25.45;20.48;;;4.80;99.90;;;;;;2122259;27;20098;-78
2020/12/09 03:38:34;;;;;;;28.10;21.88;;;4.80;99.90;;;;;;2113634;28;20016;-77
2020/12/09 03:39:34;;;;;;;25.50;21.13;;;4.80;99.90;;;;;;2113253;28;20428;-80
2020/12/09 03:40:35;;;;;;;25.20;21.33;;;4.80;99.90;;;;;;2122581;27;20053;-77
2020/12/09 03:41:35;;;;;;;27.27;21.75;;;4.80;99.90;;;;;;2121969;27;20027;-77
2020/12/09 03:42:36;;;;;;;29.67;22.05;;;4.80;99.90;;;;;;2122438;27;20098;-79
2020/12/09 03:43:36;;;;;;;28.00;22.17;;;4.80;99.90;;;;;;2113498;28;20023;-80
2020/12/09 03:44:37;;;;;;;25.67;21.92;;;4.80;99.90;;;;;;2105022;28;20032;-79
2020/12/09 03:45:38;;;;;;;25.77;21.20;;;4.80;99.90;;;;;;2113626;28;20107;-77
2020/12/09 03:46:38;;;;;;;25.77;21.40;;;4.80;99.90;;;;;;2122976;27;20039;-79
2020/12/09 03:47:39;;;;;;;25.88;20.88;;;4.80;99.90;;;;;;2122670;27;20023;-80
2020/12/09 03:48:39;;;;;;;28.55;22.27;;;4.90;99.90;;;;;;2122912;27;20154;-77
2020/12/09 03:49:43;;;;;;;28.15;21.05;;;4.90;99.90;;;;;;2122649;27;20582;-77
2020/12/09 03:50:43;;;;;;;31.60;22.77;;;4.90;99.90;;;;;;2122602;27;20015;-78
2020/12/09 03:51:44;;;;;;;27.75;22.33;;;4.90;99.90;;;;;;2122085;27;20019;-77
2020/12/09 03:52:45;;;;;;;28.88;22.88;;;4.90;99.90;;;;;;2113539;28;20027;-78
2020/12/09 03:53:45;;;;;;;26.25;21.73;;;4.90;99.90;;;;;;2113740;28;20396;-81
2020/12/09 03:54:46;;;;;;;28.67;22.52;;;4.90;99.90;;;;;;2122660;27;20047;-77
2020/12/09 03:55:50;;;;;;;31.00;22.73;;;4.90;99.90;;;;;;2122580;27;20140;-78
2020/12/09 03:56:51;;;;;;;27.90;22.38;;;4.90;99.90;;;;;;2122822;27;20019;-79
2020/12/09 03:57:51;;;;;;;28.80;23.55;;;4.90;99.90;;;;;;2113366;28;20073;-79
2020/12/09 03:58:52;;;;;;;27.75;22.25;;;4.90;99.90;;;;;;2113542;28;20372;-78
2020/12/09 03:59:52;;;;;;;29.38;23.80;;;4.90;99.90;;;;;;2122770;27;20023;-78
2020/12/09 04:00:53;;;;;;;28.17;22.73;;;4.90;99.90;;;;;;2122619;27;20051;-77
2020/12/09 04:01:53;;;;;;;28.15;23.58;;;4.90;99.90;;;;;;2121331;27;20031;-79
2020/12/09 04:02:54;;;;;;;30.52;22.92;;;4.90;99.90;;;;;;2122205;27;20019;-79
2020/12/09 04:03:55;;;;;;;28.58;22.23;;;5.00;99.90;;;;;;2122056;27;20470;-77
2020/12/09 04:04:55;;;;;;;31.45;23.63;;;5.00;99.90;;;;;;2122158;27;20033;-77
2020/12/09 04:05:56;;;;;;;25.67;21.58;;;5.00;99.90;;;;;;2121871;27;20042;-80
2020/12/09 04:06:57;;;;;;;26.95;22.65;;;4.90;99.90;;;;;;2122359;27;20019;-80
2020/12/09 04:07:57;;;;;;;28.50;22.65;;;5.00;99.90;;;;;;2121872;27;20031;-77
2020/12/09 04:08:58;;;;;;;32.33;22.75;;;5.00;99.90;;;;;;2112964;28;20866;-78
2020/12/09 04:09:58;;;;;;;28.38;22.95;;;5.00;99.90;;;;;;2112684;28;20027;-78
2020/12/09 04:10:59;;;;;;;30.20;23.33;;;5.00;99.90;;;;;;2121370;27;20011;-79
2020/12/09 04:11:59;;;;;;;29.20;23.73;;;5.00;99.90;;;;;;2121393;27;20019;-80
2020/12/09 04:13:00;;;;;;;30.30;24.63;;;5.00;99.90;;;;;;2122144;27;20023;-77
2020/12/09 04:14:00;;;;;;;30.50;24.10;;;5.00;99.90;;;;;;2121979;27;20026;-78
2020/12/09 04:15:02;;;;;;;30.45;23.98;;;5.00;99.90;;;;;;2121901;27;20023;-81
2020/12/09 04:16:02;;;;;;;28.40;22.50;;;5.00;99.90;;;;;;2121932;27;20019;-80
2020/12/09 04:17:03;;;;;;;34.42;23.77;;;5.00;99.90;;;;;;2121823;27;20386;-79
2020/12/09 04:18:03;;;;;;;30.48;24.00;;;5.00;99.90;;;;;;2112480;28;20022;-80
2020/12/09 04:19:04;;;;;;;30.60;24.48;;;5.00;99.90;;;;;;2104411;28;20060;-79
2020/12/09 04:20:06;;;;;;;31.83;23.80;;;5.00;99.90;;;;;;2112651;28;20110;-78
2020/12/09 04:21:07;;;;;;;28.38;23.48;;;5.00;99.90;;;;;;2121897;27;20023;-79
2020/12/09 04:22:07;;;;;;;30.85;23.45;;;5.00;99.90;;;;;;2121107;27;20102;-77
2020/12/09 04:23:08;;;;;;;30.98;24.25;;;5.00;99.90;;;;;;2121859;27;20019;-78
2020/12/09 04:24:08;;;;;;;29.95;23.90;;;5.00;99.90;;;;;;2112383;28;20023;-81
2020/12/09 04:25:09;;;;;;;34.03;24.40;;;5.00;99.90;;;;;;2112599;28;20035;-77
2020/12/09 04:26:09;;;;;;;31.45;24.63;;;5.00;99.90;;;;;;2121636;27;20265;-80
2020/12/09 04:27:10;;;;;;;29.92;23.38;;;5.00;99.90;;;;;;2121720;27;20238;-79
2020/12/09 04:28:11;;;;;;;29.40;24.27;;;5.00;99.90;;;;;;2121944;27;20027;-77
2020/12/09 04:29:11;;;;;;;29.63;24.25;;;5.10;99.90;;;;;;2112799;28;20723;-78
2020/12/09 04:30:12;;;;;;;31.25;24.70;;;5.10;99.90;;;;;;2112190;28;20053;-79
2020/12/09 04:31:12;;;;;;;31.52;23.27;;;5.10;99.90;;;;;;2121699;27;20382;-79
2020/12/09 04:32:13;;;;;;;33.55;25.73;;;5.10;99.90;;;;;;2112008;28;20028;-79
2020/12/09 04:33:14;;;;;;;31.63;24.27;;;5.10;99.90;;;;;;2104085;28;20019;-80
2020/12/09 04:34:19;;;;;;;32.38;25.02;;;5.10;99.90;;;;;;2112397;28;20027;-79
2020/12/09 04:35:19;;;;;;;29.83;25.23;;;5.10;99.90;;;;;;2121603;27;20019;-78
2020/12/09 04:36:20;;;;;;;33.60;25.35;;;5.10;99.90;;;;;;2121617;27;20343;-76
2020/12/09 04:37:21;;;;;;;30.50;24.83;;;5.10;99.90;;;;;;2121623;27;20054;-77
2020/12/09 04:38:23;;;;;;;29.63;24.45;;;5.10;99.90;;;;;;2121432;27;20023;-80
2020/12/09 04:39:23;;;;;;;28.38;23.98;;;5.10;99.90;;;;;;2121303;27;20027;-80
2020/12/09 04:40:26;;;;;;;32.50;24.20;;;5.10;99.90;;;;;;2121539;27;20383;-77
2020/12/09 04:41:26;;;;;;;29.40;23.45;;;5.10;99.90;;;;;;2120957;27;20515;-78
2020/12/09 04:42:27;;;;;;;30.13;24.20;;;5.10;99.90;;;;;;2121645;27;20188;-78
2020/12/09 04:43:31;;;;;;;35.00;25.15;;;5.10;99.90;;;;;;2121581;27;20299;-79
2020/12/09 04:44:32;;;;;;;36.05;26.00;;;5.10;99.90;;;;;;2121546;27;20061;-78
2020/12/09 04:45:33;;;;;;;31.83;25.27;;;5.10;99.90;;;;;;2121508;27;20023;-79
2020/12/09 04:46:44;;;;;;;31.80;25.10;;;5.20;99.90;;;;;;2120964;27;20025;-77
2020/12/09 04:47:51;;;;;;;28.75;22.45;;;5.20;99.90;;;;;;2112337;28;20028;-81
2020/12/09 04:48:59;;;;;;;29.95;23.27;;;5.10;99.90;;;;;;2104763;28;20032;-79
2020/12/09 04:50:11;;;;;;;29.95;25.00;;;5.20;99.90;;;;;;2113619;27;20170;-76
2020/12/09 04:51:47;;;;;;;32.97;24.05;;;5.20;99.90;;;;;;2121283;27;20073;-81
2020/12/09 04:53:05;;;;;;;30.05;23.17;;;5.20;99.90;;;;;;2121597;27;20129;-78
2020/12/09 04:54:15;;;;;;;32.88;24.13;;;5.10;99.90;;;;;;2121700;27;20022;-78
2020/12/09 04:55:17;;;;;;;31.95;24.00;;;5.10;99.90;;;;;;2121672;27;20273;-77
2020/12/09 04:56:25;;;;;;;33.85;24.80;;;5.10;99.90;;;;;;2112291;28;20027;-79
2020/12/09 04:57:38;;;;;;;35.63;25.60;;;5.10;99.90;;;;;;2112040;28;20028;-77
2020/12/09 04:58:41;;;;;;;31.05;24.38;;;5.20;99.90;;;;;;2114219;27;20057;-79
2020/12/09 04:59:48;;;;;;;31.25;24.65;;;5.20;99.90;;;;;;2121255;27;20019;-78
2020/12/09 05:01:04;;;;;;;36.53;25.70;;;5.20;99.90;;;;;;2112261;28;20031;-78
2020/12/09 05:02:08;;;;;;;35.47;25.08;;;5.20;99.90;;;;;;2114018;27;20023;-78
2020/12/09 05:03:19;;;;;;;30.20;24.52;;;5.20;99.90;;;;;;2103898;28;20012;-80
2020/12/09 05:04:25;;;;;;;32.70;25.17;;;5.20;99.90;;;;;;2106917;27;20591;-80
2020/12/09 05:05:26;;;;;;;33.60;26.10;;;5.20;99.90;;;;;;2111379;28;20407;-79
2020/12/09 05:06:28;;;;;;;34.40;26.27;;;5.20;99.90;;;;;;2103680;28;20052;-80
2020/12/09 05:07:36;;;;;;;33.05;24.80;;;5.20;99.90;;;;;;2112220;27;20357;-77
2020/12/09 05:08:38;;;;;;;39.33;25.65;;;5.20;99.90;;;;;;2121064;27;20364;-80
2020/12/09 05:09:42;;;;;;;33.20;25.92;;;5.20;99.90;;;;;;2111697;28;20562;-79
2020/12/09 05:10:48;;;;;;;33.95;26.88;;;5.30;99.90;;;;;;2104079;28;20028;-78
2020/12/09 05:11:48;;;;;;;32.22;24.38;;;5.30;99.90;;;;;;2103606;28;20020;-77
2020/12/09 05:12:51;;;;;;;35.20;26.15;;;5.30;99.90;;;;;;2112150;28;20019;-79
2020/12/09 05:13:56;;;;;;;32.80;26.60;;;5.30;99.90;;;;;;2120682;27;20458;-80
2020/12/09 05:14:57;;;;;;;33.67;26.33;;;5.30;99.90;;;;;;2121378;27;20103;-80